createdAt,value
2017-09-16T00:00:21.230Z,10.92
2017-09-16T00:02:47.539Z,10.92
2017-09-16T00:05:14.530Z,10.92
2017-09-16T00:07:40.778Z,10.90
2017-09-16T00:10:07.089Z,10.88
2017-09-16T00:12:33.368Z,10.91
2017-09-16T00:14:59.669Z,10.92
2017-09-16T00:17:25.893Z,10.90
2017-09-16T00:19:52.085Z,10.93
2017-09-16T00:22:18.406Z,10.89
2017-09-16T00:24:44.733Z,10.90
2017-09-16T00:27:11.061Z,10.88
2017-09-16T00:29:37.258Z,10.97
2017-09-16T00:32:03.517Z,11.00
2017-09-16T00:34:29.757Z,10.96
2017-09-16T00:36:57.126Z,10.88
2017-09-16T00:39:23.325Z,10.91
2017-09-16T00:41:49.626Z,10.95
2017-09-16T00:44:15.923Z,10.94
2017-09-16T00:46:42.247Z,10.90
2017-09-16T00:49:08.468Z,10.90
2017-09-16T00:51:34.753Z,10.87
2017-09-16T00:54:01.113Z,10.85
2017-09-16T00:56:28.130Z,10.86
2017-09-16T00:58:54.371Z,10.85
2017-09-16T01:01:20.663Z,10.82
2017-09-16T01:03:47.654Z,10.83
2017-09-16T01:06:13.843Z,10.81
2017-09-16T01:08:40.810Z,10.81
2017-09-16T01:11:07.122Z,10.85
2017-09-16T01:13:34.145Z,10.84
2017-09-16T01:16:00.381Z,10.83
2017-09-16T01:18:26.805Z,10.82
2017-09-16T01:20:53.009Z,10.82
2017-09-16T01:23:19.269Z,10.82
2017-09-16T01:25:45.606Z,10.82
2017-09-16T01:28:12.041Z,10.82
2017-09-16T01:30:38.290Z,10.83
2017-09-16T01:33:04.529Z,10.82
2017-09-16T01:35:30.933Z,10.82
2017-09-16T01:37:57.190Z,10.80
2017-09-16T01:40:23.425Z,10.78
2017-09-16T01:42:49.718Z,10.79
2017-09-16T01:45:16.031Z,10.79
2017-09-16T01:47:44.029Z,10.77
2017-09-16T01:50:10.289Z,10.82
2017-09-16T01:52:36.495Z,10.82
2017-09-16T01:55:02.767Z,10.80
2017-09-16T01:57:29.235Z,10.80
2017-09-16T01:59:55.513Z,10.81
2017-09-16T02:02:21.797Z,10.86
2017-09-16T02:04:48.105Z,10.87
2017-09-16T02:07:14.333Z,10.90
2017-09-16T02:09:40.777Z,10.90
2017-09-16T02:12:06.986Z,10.93
2017-09-16T02:14:34.045Z,10.98
2017-09-16T02:17:00.240Z,11.06
2017-09-16T02:19:26.429Z,11.05
2017-09-16T02:21:52.705Z,11.11
2017-09-16T02:24:19.005Z,11.17
2017-09-16T02:26:45.257Z,11.15
2017-09-16T02:29:11.486Z,11.15
2017-09-16T02:31:37.717Z,11.13
2017-09-16T02:34:08.377Z,11.11
2017-09-16T02:36:34.756Z,11.05
2017-09-16T02:39:01.796Z,11.03
2017-09-16T02:41:28.060Z,11.00
2017-09-16T02:43:54.306Z,11.02
2017-09-16T02:46:24.015Z,10.97
2017-09-16T02:48:51.236Z,10.99
2017-09-16T02:51:18.397Z,10.97
2017-09-16T02:53:45.407Z,10.90
2017-09-16T02:56:12.647Z,10.91
2017-09-16T02:58:38.851Z,10.87
2017-09-16T03:01:05.104Z,10.85
2017-09-16T03:03:31.334Z,10.84
2017-09-16T03:05:57.613Z,10.81
2017-09-16T03:08:23.914Z,10.79
2017-09-16T03:10:50.429Z,10.73
2017-09-16T03:13:17.396Z,10.69
2017-09-16T03:15:43.637Z,10.66
2017-09-16T03:18:09.869Z,10.63
2017-09-16T03:20:36.145Z,10.59
2017-09-16T03:23:02.602Z,10.58
2017-09-16T03:25:29.609Z,10.58
2017-09-16T03:27:55.821Z,10.55
2017-09-16T03:30:22.101Z,10.57
2017-09-16T03:32:48.313Z,10.54
2017-09-16T03:35:14.537Z,10.53
2017-09-16T03:37:40.762Z,10.55
2017-09-16T03:40:06.985Z,10.56
2017-09-16T03:42:33.177Z,10.51
2017-09-16T03:44:59.406Z,10.52
2017-09-16T03:47:25.709Z,10.55
2017-09-16T03:49:51.941Z,10.47
2017-09-16T03:52:18.222Z,10.48
2017-09-16T03:54:44.526Z,10.50
2017-09-16T03:57:10.757Z,10.46
2017-09-16T03:59:36.970Z,10.44
2017-09-16T04:02:15.421Z,10.45
2017-09-16T04:04:41.781Z,10.47
2017-09-16T04:07:08.694Z,10.48
2017-09-16T04:09:35.130Z,10.51
2017-09-16T04:12:01.377Z,10.45
2017-09-16T04:14:27.576Z,10.50
2017-09-16T04:16:53.837Z,10.51
2017-09-16T04:19:20.037Z,10.54
2017-09-16T04:21:46.266Z,10.48
2017-09-16T04:24:13.282Z,10.41
2017-09-16T04:26:40.396Z,10.39
2017-09-16T04:29:06.618Z,10.38
2017-09-16T04:31:32.849Z,10.36
2017-09-16T04:33:59.100Z,10.36
2017-09-16T04:36:25.479Z,10.40
2017-09-16T04:38:51.734Z,10.42
2017-09-16T04:41:18.742Z,10.38
2017-09-16T04:43:44.977Z,10.34
2017-09-16T04:46:11.237Z,10.40
2017-09-16T04:48:37.526Z,10.36
2017-09-16T04:51:03.704Z,10.36
2017-09-16T04:53:30.075Z,10.36
2017-09-16T04:55:59.388Z,10.43
2017-09-16T04:58:25.596Z,10.39
2017-09-16T05:00:51.886Z,10.37
2017-09-16T05:03:18.093Z,10.35
2017-09-16T05:05:44.300Z,10.42
2017-09-16T05:08:11.322Z,10.44
2017-09-16T05:10:37.601Z,10.46
2017-09-16T05:13:04.720Z,10.50
2017-09-16T05:15:31.022Z,10.59
2017-09-16T05:17:57.269Z,10.56
2017-09-16T05:20:23.486Z,10.55
2017-09-16T05:22:49.736Z,10.53
2017-09-16T05:25:15.962Z,10.44
2017-09-16T05:27:43.232Z,10.45
2017-09-16T05:30:09.474Z,10.51
2017-09-16T05:32:35.837Z,10.49
2017-09-16T05:35:02.131Z,10.50
2017-09-16T05:37:28.345Z,10.51
2017-09-16T05:39:54.609Z,10.51
2017-09-16T05:42:20.836Z,10.46
2017-09-16T05:44:47.068Z,10.43
2017-09-16T05:47:13.285Z,10.42
2017-09-16T05:49:39.566Z,10.47
2017-09-16T05:52:05.889Z,10.53
2017-09-16T05:54:32.237Z,10.56
2017-09-16T05:56:58.580Z,10.60
2017-09-16T05:59:25.633Z,10.61
2017-09-16T06:01:52.013Z,10.63
2017-09-16T06:04:18.358Z,10.56
2017-09-16T06:06:44.615Z,10.59
2017-09-16T06:09:10.918Z,10.56
2017-09-16T06:11:37.169Z,10.51
2017-09-16T06:14:03.399Z,10.50
2017-09-16T06:16:29.649Z,10.46
2017-09-16T06:18:55.902Z,10.42
2017-09-16T06:21:23.068Z,10.42
2017-09-16T06:23:49.350Z,10.38
2017-09-16T06:26:16.317Z,10.41
2017-09-16T06:28:42.743Z,10.43
2017-09-16T06:31:09.010Z,10.47
2017-09-16T06:33:35.258Z,10.51
2017-09-16T06:36:01.581Z,10.49
2017-09-16T06:38:27.838Z,10.44
2017-09-16T06:40:54.270Z,10.49
2017-09-16T06:43:22.549Z,10.40
2017-09-16T06:45:48.857Z,10.39
2017-09-16T06:48:15.141Z,10.38
2017-09-16T06:50:42.153Z,10.42
2017-09-16T06:53:08.404Z,10.41
2017-09-16T06:55:34.617Z,10.39
2017-09-16T06:58:00.855Z,10.32
2017-09-16T07:00:27.117Z,10.28
2017-09-16T07:02:53.438Z,10.25
2017-09-16T07:05:19.670Z,10.30
2017-09-16T07:07:45.882Z,10.33
2017-09-16T07:10:12.078Z,10.30
2017-09-16T07:12:39.165Z,10.34
2017-09-16T07:15:05.438Z,10.34
2017-09-16T07:17:31.626Z,10.36
2017-09-16T07:19:57.902Z,10.34
2017-09-16T07:22:24.121Z,10.39
2017-09-16T07:24:50.349Z,10.39
2017-09-16T07:27:16.591Z,10.44
2017-09-16T07:29:42.789Z,10.44
2017-09-16T07:32:09.802Z,10.41
2017-09-16T07:34:36.133Z,10.44
2017-09-16T07:37:02.440Z,10.41
2017-09-16T07:39:28.657Z,10.44
2017-09-16T07:41:54.893Z,10.50
2017-09-16T07:44:21.364Z,10.57
2017-09-16T07:46:47.570Z,10.56
2017-09-16T07:49:13.833Z,10.66
2017-09-16T07:51:40.054Z,10.72
2017-09-16T07:54:06.322Z,10.87
2017-09-16T07:56:33.343Z,10.81
2017-09-16T07:58:59.592Z,10.96
2017-09-16T08:01:25.811Z,11.00
2017-09-16T08:03:52.082Z,10.86
2017-09-16T08:06:18.265Z,11.00
2017-09-16T08:08:44.507Z,11.16
2017-09-16T08:11:10.779Z,11.40
2017-09-16T08:13:37.095Z,11.53
2017-09-16T08:16:03.340Z,11.62
2017-09-16T08:18:29.542Z,11.70
2017-09-16T08:20:55.788Z,11.71
2017-09-16T08:23:22.008Z,11.69
2017-09-16T08:25:48.284Z,12.09
2017-09-16T08:28:14.654Z,12.53
2017-09-16T08:30:41.627Z,12.72
2017-09-16T08:33:07.909Z,12.68
2017-09-16T08:35:34.238Z,12.81
2017-09-16T08:38:01.451Z,12.90
2017-09-16T08:40:27.722Z,12.73
2017-09-16T08:42:53.957Z,12.62
2017-09-16T08:45:20.203Z,12.62
2017-09-16T08:47:46.522Z,12.56
2017-09-16T08:50:12.806Z,12.55
2017-09-16T08:52:39.802Z,12.38
2017-09-16T08:55:06.039Z,12.27
2017-09-16T08:57:32.261Z,12.28
2017-09-16T08:59:58.455Z,12.35
2017-09-16T09:02:24.956Z,12.36
2017-09-16T09:04:51.194Z,12.49
2017-09-16T09:07:17.451Z,12.37
2017-09-16T09:09:43.748Z,12.40
2017-09-16T09:12:09.982Z,12.27
2017-09-16T09:14:36.349Z,12.23
2017-09-16T09:17:02.570Z,12.17
2017-09-16T09:19:28.855Z,12.31
2017-09-16T09:21:56.150Z,12.37
2017-09-16T09:24:22.453Z,12.49
2017-09-16T09:26:48.714Z,12.66
2017-09-16T09:29:17.463Z,12.75
2017-09-16T09:31:45.609Z,12.86
2017-09-16T09:34:11.907Z,12.94
2017-09-16T09:36:38.293Z,12.82
2017-09-16T09:39:04.833Z,12.64
2017-09-16T09:41:31.121Z,12.46
2017-09-16T09:43:57.378Z,12.45
2017-09-16T09:46:23.618Z,12.44
2017-09-16T09:48:49.877Z,12.56
2017-09-16T09:51:16.068Z,12.46
2017-09-16T09:53:48.569Z,12.37
2017-09-16T09:56:17.974Z,12.40
2017-09-16T09:58:44.190Z,12.46
2017-09-16T10:01:10.474Z,12.40
2017-09-16T10:03:36.769Z,12.38
2017-09-16T10:06:03.021Z,12.41
2017-09-16T10:08:29.285Z,12.47
2017-09-16T10:10:55.570Z,12.56
2017-09-16T10:13:28.056Z,12.88
2017-09-16T10:15:54.886Z,12.68
2017-09-16T10:18:21.309Z,12.78
2017-09-16T10:20:48.305Z,12.87
2017-09-16T10:23:14.541Z,12.93
2017-09-16T10:25:41.514Z,13.08
2017-09-16T10:28:07.873Z,12.95
2017-09-16T10:30:34.853Z,13.01
2017-09-16T10:33:01.105Z,12.98
2017-09-16T10:35:27.346Z,13.05
2017-09-16T10:37:53.550Z,13.04
2017-09-16T10:40:19.857Z,13.07
2017-09-16T10:42:46.034Z,13.08
2017-09-16T10:45:13.190Z,12.88
2017-09-16T10:47:39.431Z,12.95
2017-09-16T10:50:05.620Z,12.94
2017-09-16T10:52:32.623Z,12.89
2017-09-16T10:54:58.860Z,12.69
2017-09-16T10:57:25.082Z,12.93
2017-09-16T10:59:51.333Z,13.06
2017-09-16T11:02:18.190Z,13.25
2017-09-16T11:04:44.513Z,13.37
2017-09-16T11:07:10.790Z,13.50
2017-09-16T11:09:37.835Z,13.57
2017-09-16T11:12:04.450Z,13.48
2017-09-16T11:14:30.706Z,13.70
2017-09-16T11:16:57.010Z,13.52
2017-09-16T11:19:24.814Z,13.46
2017-09-16T11:21:51.121Z,13.30
2017-09-16T11:24:17.393Z,13.16
2017-09-16T11:26:45.631Z,13.31
2017-09-16T11:29:11.853Z,13.44
2017-09-16T11:31:38.374Z,13.72
2017-09-16T11:34:04.673Z,14.06
2017-09-16T11:36:30.852Z,14.35
2017-09-16T11:38:57.255Z,14.54
2017-09-16T11:41:24.252Z,14.42
2017-09-16T11:43:50.503Z,14.49
2017-09-16T11:46:17.789Z,14.53
2017-09-16T11:48:44.132Z,14.48
2017-09-16T11:51:11.017Z,14.26
2017-09-16T11:53:37.313Z,14.15
2017-09-16T11:56:03.620Z,14.29
2017-09-16T11:58:29.875Z,14.54
2017-09-16T12:00:56.111Z,14.60
2017-09-16T12:03:22.420Z,14.48
2017-09-16T12:05:48.792Z,14.52
2017-09-16T12:08:15.104Z,14.73
2017-09-16T12:10:41.317Z,15.19
2017-09-16T12:13:07.582Z,15.70
2017-09-16T12:15:33.798Z,15.88
2017-09-16T12:18:00.015Z,15.86
2017-09-16T12:20:26.351Z,15.56
2017-09-16T12:22:52.595Z,15.38
2017-09-16T12:25:18.867Z,15.09
2017-09-16T12:27:45.904Z,15.09
2017-09-16T12:30:13.074Z,15.03
2017-09-16T12:32:39.421Z,14.90
2017-09-16T12:35:05.737Z,14.99
2017-09-16T12:37:31.982Z,15.26
2017-09-16T12:39:58.184Z,15.41
2017-09-16T12:42:26.296Z,15.34
2017-09-16T12:44:52.686Z,15.53
2017-09-16T12:47:18.941Z,15.62
2017-09-16T12:49:45.170Z,15.64
2017-09-16T12:52:11.435Z,15.79
2017-09-16T12:54:37.791Z,15.83
2017-09-16T12:57:04.796Z,15.94
2017-09-16T12:59:31.042Z,16.00
2017-09-16T13:01:57.326Z,16.12
2017-09-16T13:04:24.409Z,16.32
2017-09-16T13:06:50.618Z,17.23
2017-09-16T13:09:17.637Z,17.76
2017-09-16T13:11:43.942Z,18.08
2017-09-16T13:14:10.161Z,18.43
2017-09-16T13:16:36.458Z,18.46
2017-09-16T13:19:02.741Z,18.56
2017-09-16T13:21:28.997Z,18.00
2017-09-16T13:23:55.225Z,18.14
2017-09-16T13:26:21.629Z,17.95
2017-09-16T13:28:47.846Z,18.30
2017-09-16T13:31:14.047Z,19.53
2017-09-16T13:33:40.329Z,20.44
2017-09-16T13:36:07.318Z,20.38
2017-09-16T13:38:33.559Z,20.18
2017-09-16T13:40:59.888Z,19.63
2017-09-16T13:43:26.121Z,19.05
2017-09-16T13:45:52.466Z,18.88
2017-09-16T13:48:18.658Z,19.07
2017-09-16T13:50:44.880Z,19.60
2017-09-16T13:53:11.160Z,19.15
2017-09-16T13:55:37.395Z,18.86
2017-09-16T13:58:03.630Z,18.88
2017-09-16T14:00:29.848Z,19.43
2017-09-16T14:02:56.101Z,20.23
2017-09-16T14:05:22.333Z,20.17
2017-09-16T14:07:49.605Z,19.58
2017-09-16T14:10:15.845Z,19.21
2017-09-16T14:12:42.042Z,20.65
2017-09-16T14:15:08.353Z,22.02
2017-09-16T14:17:35.323Z,23.13
2017-09-16T14:20:01.614Z,23.52
2017-09-16T14:22:27.906Z,23.46
2017-09-16T14:24:54.186Z,23.56
2017-09-16T14:27:21.360Z,24.59
2017-09-16T14:29:48.373Z,24.65
2017-09-16T14:32:15.746Z,25.77
2017-09-16T14:34:42.512Z,26.27
2017-09-16T14:37:08.765Z,26.23
2017-09-16T14:39:35.766Z,25.86
2017-09-16T14:42:02.011Z,26.24
2017-09-16T14:44:28.310Z,26.17
2017-09-16T14:46:54.700Z,26.34
2017-09-16T14:49:21.721Z,26.25
2017-09-16T14:51:47.961Z,25.78
2017-09-16T14:54:14.231Z,23.92
2017-09-16T14:56:41.257Z,22.02
2017-09-16T14:59:07.541Z,20.98
2017-09-16T15:01:34.478Z,20.57
2017-09-16T15:04:01.517Z,19.70
2017-09-16T15:06:28.509Z,19.45
2017-09-16T15:08:54.757Z,19.14
2017-09-16T15:11:21.010Z,18.80
2017-09-16T15:13:47.279Z,18.48
2017-09-16T15:16:13.572Z,18.49
2017-09-16T15:18:39.806Z,18.47
2017-09-16T15:21:06.067Z,18.64
2017-09-16T15:23:32.387Z,20.06
2017-09-16T15:25:58.597Z,20.46
2017-09-16T15:28:24.789Z,21.17
2017-09-16T15:30:51.076Z,20.89
2017-09-16T15:33:17.295Z,21.39
2017-09-16T15:35:43.532Z,22.07
2017-09-16T15:38:09.794Z,21.94
2017-09-16T15:40:36.030Z,21.48
2017-09-16T15:43:02.218Z,21.42
2017-09-16T15:45:28.480Z,20.75
2017-09-16T15:47:54.708Z,20.66
2017-09-16T15:50:20.897Z,19.49
2017-09-16T15:52:47.901Z,19.30
2017-09-16T15:55:14.208Z,18.71
2017-09-16T15:57:40.453Z,17.95
2017-09-16T16:00:06.693Z,17.46
2017-09-16T16:02:32.949Z,17.07
2017-09-16T16:04:59.213Z,16.59
2017-09-16T16:07:25.410Z,16.15
2017-09-16T16:09:51.682Z,15.89
2017-09-16T16:12:17.986Z,15.58
2017-09-16T16:14:44.233Z,15.48
2017-09-16T16:17:10.694Z,15.30
2017-09-16T16:19:37.716Z,14.79
2017-09-16T16:22:03.937Z,14.70
2017-09-16T16:24:30.373Z,14.50
2017-09-16T16:26:56.641Z,14.34
2017-09-16T16:29:23.121Z,14.14
2017-09-16T16:31:50.222Z,14.10
2017-09-16T16:34:16.552Z,13.99
2017-09-16T16:36:42.800Z,13.88
2017-09-16T16:39:09.111Z,13.75
2017-09-16T16:41:35.341Z,13.62
2017-09-16T16:44:01.633Z,13.49
2017-09-16T16:46:28.637Z,13.34
2017-09-16T16:48:54.856Z,13.17
2017-09-16T16:51:21.097Z,13.12
2017-09-16T16:53:47.258Z,13.08
2017-09-16T16:56:13.590Z,13.09
2017-09-16T16:58:39.815Z,13.03
2017-09-16T17:01:06.031Z,12.96
2017-09-16T17:03:32.290Z,12.91
2017-09-16T17:05:58.506Z,12.77
2017-09-16T17:08:24.708Z,12.63
2017-09-16T17:10:51.733Z,12.46
2017-09-16T17:13:18.005Z,12.37
2017-09-16T17:15:44.969Z,12.28
2017-09-16T17:18:11.363Z,12.26
2017-09-16T17:20:38.584Z,12.11
2017-09-16T17:23:05.603Z,12.06
2017-09-16T17:25:31.930Z,11.98
2017-09-16T17:27:58.240Z,11.93
2017-09-16T17:30:24.582Z,11.90
2017-09-16T17:32:50.898Z,11.78
2017-09-16T17:35:22.242Z,11.66
2017-09-16T17:37:48.907Z,11.53
2017-09-16T17:40:20.209Z,11.43
2017-09-16T17:42:49.098Z,11.30
2017-09-16T17:45:20.768Z,11.21
2017-09-16T17:47:52.630Z,11.10
2017-09-16T17:50:19.935Z,10.97
2017-09-16T17:52:46.135Z,10.88
2017-09-16T17:55:12.373Z,10.82
2017-09-16T17:57:38.726Z,10.78
2017-09-16T18:00:05.766Z,10.79
2017-09-16T18:02:32.006Z,10.84
2017-09-16T18:04:58.194Z,10.75
2017-09-16T18:07:24.486Z,10.70
2017-09-16T18:09:50.802Z,10.48
2017-09-16T18:12:18.023Z,10.29
2017-09-16T18:14:44.281Z,10.16
2017-09-16T18:17:10.670Z,10.03
2017-09-16T18:19:37.667Z,9.83
2017-09-16T18:22:03.932Z,9.73
2017-09-16T18:24:30.320Z,9.65
2017-09-16T18:26:57.332Z,9.54
2017-09-16T18:29:23.690Z,9.43
2017-09-16T18:31:50.657Z,9.31
2017-09-16T18:34:17.643Z,9.21
2017-09-16T18:36:43.910Z,9.12
2017-09-16T18:39:10.207Z,9.04
2017-09-16T18:41:36.454Z,8.96
2017-09-16T18:44:02.705Z,8.88
2017-09-16T18:46:29.045Z,8.81
2017-09-16T18:48:55.351Z,8.74
2017-09-16T18:51:21.589Z,8.69
2017-09-16T18:53:47.797Z,8.63
2017-09-16T18:56:14.814Z,8.60
2017-09-16T18:58:41.113Z,8.54
2017-09-16T19:01:07.362Z,8.50
2017-09-16T19:03:35.713Z,8.45
2017-09-16T19:06:01.982Z,8.41
2017-09-16T19:08:28.362Z,8.34
2017-09-16T19:10:55.427Z,8.32
2017-09-16T19:13:21.610Z,8.29
2017-09-16T19:15:47.830Z,8.20
2017-09-16T19:18:14.708Z,8.15
2017-09-16T19:20:42.648Z,8.09
2017-09-16T19:23:08.898Z,8.06
2017-09-16T19:25:35.248Z,8.04
2017-09-16T19:28:01.563Z,7.95
2017-09-16T19:30:27.806Z,7.90
2017-09-16T19:32:54.240Z,7.83
2017-09-16T19:35:20.812Z,7.86
2017-09-16T19:37:47.865Z,7.89
2017-09-16T19:40:14.865Z,7.86
2017-09-16T19:42:41.234Z,7.85
2017-09-16T19:45:07.669Z,7.83
2017-09-16T19:47:33.901Z,7.78
2017-09-16T19:50:00.157Z,7.71
2017-09-16T19:52:26.684Z,7.66
2017-09-16T19:54:52.907Z,7.63
2017-09-16T19:57:19.162Z,7.61
2017-09-16T19:59:45.409Z,7.63
2017-09-16T20:02:11.873Z,7.57
2017-09-16T20:04:38.878Z,7.56
2017-09-16T20:07:05.098Z,7.53
2017-09-16T20:09:31.337Z,7.44
2017-09-16T20:11:57.561Z,7.38
2017-09-16T20:14:23.786Z,7.40
2017-09-16T20:16:50.146Z,7.41
2017-09-16T20:19:16.341Z,7.35
2017-09-16T20:21:42.597Z,7.29
2017-09-16T20:24:08.877Z,7.25
2017-09-16T20:26:35.202Z,7.22
2017-09-16T20:29:01.547Z,7.21
2017-09-16T20:31:27.857Z,7.26
2017-09-16T20:33:54.057Z,7.25
2017-09-16T20:36:20.520Z,7.23
2017-09-16T20:38:46.773Z,7.22
2017-09-16T20:41:13.159Z,7.22
2017-09-16T20:43:40.144Z,7.25
2017-09-16T20:46:06.405Z,7.19
2017-09-16T20:48:32.763Z,7.10
2017-09-16T20:50:59.777Z,7.09
2017-09-16T20:53:25.998Z,7.06
2017-09-16T20:55:52.357Z,7.04
2017-09-16T20:58:18.687Z,6.98
2017-09-16T21:00:44.917Z,6.93
2017-09-16T21:03:11.194Z,6.93
2017-09-16T21:05:37.461Z,6.90
2017-09-16T21:08:03.742Z,6.89
2017-09-16T21:10:29.929Z,6.87
2017-09-16T21:12:56.207Z,6.87
2017-09-16T21:15:22.426Z,6.86
2017-09-16T21:17:48.670Z,6.88
2017-09-16T21:20:14.850Z,6.89
2017-09-16T21:22:42.144Z,6.83
2017-09-16T21:25:08.369Z,6.80
2017-09-16T21:27:34.626Z,6.75
2017-09-16T21:30:00.921Z,6.70
2017-09-16T21:32:27.156Z,6.67
2017-09-16T21:34:54.149Z,6.68
2017-09-16T21:37:20.353Z,6.67
2017-09-16T21:39:46.555Z,6.69
2017-09-16T21:42:18.617Z,6.69
2017-09-16T21:44:49.693Z,6.78
2017-09-16T21:47:16.288Z,6.82
2017-09-16T21:49:44.529Z,6.81
2017-09-16T21:52:10.709Z,6.81
2017-09-16T21:54:37.002Z,6.84
2017-09-16T21:57:04.258Z,6.88
2017-09-16T21:59:30.637Z,6.92
2017-09-16T22:01:56.936Z,6.94
2017-09-16T22:04:23.155Z,7.00
2017-09-16T22:06:49.451Z,7.04
2017-09-16T22:09:15.782Z,7.09
2017-09-16T22:11:42.113Z,7.07
2017-09-16T22:14:09.466Z,7.04
2017-09-16T22:16:35.751Z,7.00
2017-09-16T22:19:02.742Z,6.96
2017-09-16T22:21:28.953Z,6.91
2017-09-16T22:23:55.194Z,6.89
2017-09-16T22:26:21.433Z,6.87
2017-09-16T22:28:47.663Z,6.86
2017-09-16T22:31:13.910Z,6.84
2017-09-16T22:33:40.194Z,6.88
2017-09-16T22:36:07.175Z,6.83
2017-09-16T22:38:33.443Z,6.75
2017-09-16T22:40:59.758Z,6.75
2017-09-16T22:43:25.964Z,6.71
2017-09-16T22:45:53.762Z,6.67
2017-09-16T22:48:20.093Z,6.71
2017-09-16T22:50:46.306Z,6.75
2017-09-16T22:53:12.574Z,6.78
2017-09-16T22:55:38.849Z,6.79
2017-09-16T22:58:05.150Z,6.76
2017-09-16T23:00:31.382Z,6.73
2017-09-16T23:02:57.629Z,6.73
2017-09-16T23:05:23.936Z,6.77
2017-09-16T23:07:50.423Z,6.82
2017-09-16T23:10:16.705Z,6.87
2017-09-16T23:12:42.949Z,6.92
2017-09-16T23:15:09.195Z,6.98
2017-09-16T23:17:35.796Z,7.01
2017-09-16T23:20:02.064Z,7.04
2017-09-16T23:22:29.030Z,7.07
2017-09-16T23:24:57.050Z,7.11
2017-09-16T23:27:25.277Z,7.13
2017-09-16T23:29:51.578Z,7.16
2017-09-16T23:32:17.968Z,7.19
2017-09-16T23:34:44.282Z,7.20
2017-09-16T23:37:10.530Z,7.17
2017-09-16T23:39:36.745Z,7.17
2017-09-16T23:42:02.974Z,7.18
2017-09-16T23:44:29.217Z,7.18
2017-09-16T23:46:55.434Z,7.22
2017-09-16T23:49:21.718Z,7.24
2017-09-16T23:51:48.031Z,7.21
2017-09-16T23:54:14.257Z,7.21
2017-09-16T23:56:40.513Z,7.21
2017-09-16T23:59:06.745Z,7.33
